sensor_id;sensor_type;location;lat;lon;timestamp;pressure;altitude;pressure_sealevel;temperature;humidity
31681;BME280;18281;51.364;9.566;2022-08-04T00:01:36;99839.75;;;16.41;98.56
31681;BME280;18281;51.364;9.566;2022-08-04T00:04:13;99834.44;;;16.41;98.62
31681;BME280;18281;51.364;9.566;2022-08-04T00:06:56;99828.19;;;16.42;98.48
31681;BME280;18281;51.364;9.566;2022-08-04T00:09:29;99832.25;;;16.47;98.15
31681;BME280;18281;51.364;9.566;2022-08-04T00:12:00;99836.22;;;15.53;100.00
31681;BME280;18281;51.364;9.566;2022-08-04T00:14:29;99836.22;;;15.76;100.00
31681;BME280;18281;51.364;9.566;2022-08-04T00:16:58;99838.63;;;15.56;100.00
31681;BME280;18281;51.364;9.566;2022-08-04T00:19:29;99837.28;;;15.51;100.00
31681;BME280;18281;51.364;9.566;2022-08-04T00:21:59;99841.84;;;15.83;100.00
31681;BME280;18281;51.364;9.566;2022-08-04T00:24:29;99837.78;;;15.90;100.00
31681;BME280;18281;51.364;9.566;2022-08-04T00:26:54;99832.09;;;15.95;100.00
31681;BME280;18281;51.364;9.566;2022-08-04T00:29:21;99835.59;;;15.84;100.00
31681;BME280;18281;51.364;9.566;2022-08-04T00:31:47;99832.63;;;16.09;100.00
31681;BME280;18281;51.364;9.566;2022-08-04T00:34:13;99834.84;;;15.93;100.00
31681;BME280;18281;51.364;9.566;2022-08-04T00:36:42;99835.19;;;16.00;100.00
31681;BME280;18281;51.364;9.566;2022-08-04T00:39:11;99836.91;;;16.01;100.00
31681;BME280;18281;51.364;9.566;2022-08-04T01:01:02;99840.81;;;15.29;100.00
31681;BME280;18281;51.364;9.566;2022-08-04T01:03:48;99848.81;;;14.82;100.00
31681;BME280;18281;51.364;9.566;2022-08-04T01:09:36;99853.06;;;15.18;100.00
31681;BME280;18281;51.364;9.566;2022-08-04T01:15:23;99852.06;;;14.85;100.00
31681;BME280;18281;51.364;9.566;2022-08-04T01:20:09;99839.13;;;15.50;100.00
31681;BME280;18281;51.364;9.566;2022-08-04T01:31:46;99828.03;;;15.45;100.00
31681;BME280;18281;51.364;9.566;2022-08-04T01:34:15;99835.88;;;15.24;100.00
31681;BME280;18281;51.364;9.566;2022-08-04T01:36:45;99827.72;;;15.27;100.00
31681;BME280;18281;51.364;9.566;2022-08-04T01:39:14;99826.84;;;15.26;100.00
31681;BME280;18281;51.364;9.566;2022-08-04T01:41:59;99823.00;;;15.42;100.00
31681;BME280;18281;51.364;9.566;2022-08-04T01:44:26;99827.31;;;15.09;100.00
31681;BME280;18281;51.364;9.566;2022-08-04T01:46:53;99833.34;;;15.11;100.00
31681;BME280;18281;51.364;9.566;2022-08-04T01:49:20;99831.41;;;15.13;100.00
31681;BME280;18281;51.364;9.566;2022-08-04T01:51:49;99829.50;;;15.15;100.00
31681;BME280;18281;51.364;9.566;2022-08-04T01:54:17;99828.72;;;14.79;100.00
31681;BME280;18281;51.364;9.566;2022-08-04T01:56:45;99830.44;;;14.91;100.00
31681;BME280;18281;51.364;9.566;2022-08-04T01:59:14;99826.34;;;14.87;100.00
31681;BME280;18281;51.364;9.566;2022-08-04T02:01:41;99829.00;;;14.87;100.00
31681;BME280;18281;51.364;9.566;2022-08-04T02:04:12;99827.94;;;15.01;100.00
31681;BME280;18281;51.364;9.566;2022-08-04T02:12:02;99826.53;;;14.73;100.00
31681;BME280;18281;51.364;9.566;2022-08-04T02:14:30;99824.50;;;14.65;100.00
31681;BME280;18281;51.364;9.566;2022-08-04T02:17:31;99814.56;;;14.91;100.00
31681;BME280;18281;51.364;9.566;2022-08-04T02:20:04;99822.19;;;14.60;100.00
31681;BME280;18281;51.364;9.566;2022-08-04T02:22:33;99824.53;;;14.41;100.00
31681;BME280;18281;51.364;9.566;2022-08-04T02:25:09;99812.81;;;14.56;100.00
31681;BME280;18281;51.364;9.566;2022-08-04T02:30:13;99811.66;;;14.72;100.00
31681;BME280;18281;51.364;9.566;2022-08-04T02:32:40;99813.50;;;14.47;100.00
31681;BME280;18281;51.364;9.566;2022-08-04T02:35:14;99814.22;;;14.49;100.00
31681;BME280;18281;51.364;9.566;2022-08-04T02:37:48;99806.06;;;14.52;100.00
31681;BME280;18281;51.364;9.566;2022-08-04T02:40:19;99809.06;;;14.48;100.00
31681;BME280;18281;51.364;9.566;2022-08-04T02:42:46;99813.13;;;14.40;100.00
31681;BME280;18281;51.364;9.566;2022-08-04T02:45:11;99813.41;;;14.24;100.00
31681;BME280;18281;51.364;9.566;2022-08-04T02:47:38;99808.69;;;14.41;100.00
31681;BME280;18281;51.364;9.566;2022-08-04T02:50:04;99803.97;;;14.33;100.00
31681;BME280;18281;51.364;9.566;2022-08-04T02:52:32;99805.72;;;14.21;100.00
31681;BME280;18281;51.364;9.566;2022-08-04T02:55:00;99805.69;;;14.46;100.00
31681;BME280;18281;51.364;9.566;2022-08-04T02:57:29;99804.78;;;14.22;100.00
31681;BME280;18281;51.364;9.566;2022-08-04T03:00:07;99801.78;;;13.79;100.00
31681;BME280;18281;51.364;9.566;2022-08-04T03:11:01;99801.28;;;14.22;100.00
31681;BME280;18281;51.364;9.566;2022-08-04T03:24:46;99803.34;;;13.81;100.00
31681;BME280;18281;51.364;9.566;2022-08-04T03:27:32;99810.41;;;13.93;100.00
31681;BME280;18281;51.364;9.566;2022-08-04T03:35:46;99806.88;;;13.69;100.00
31681;BME280;18281;51.364;9.566;2022-08-04T03:46:58;99808.19;;;13.50;100.00
31681;BME280;18281;51.364;9.566;2022-08-04T03:50:02;99813.63;;;13.73;100.00
31681;BME280;18281;51.364;9.566;2022-08-04T04:01:47;99798.38;;;13.76;100.00
31681;BME280;18281;51.364;9.566;2022-08-04T04:07:36;99797.44;;;13.90;100.00
31681;BME280;18281;51.364;9.566;2022-08-04T04:11:05;99803.78;;;13.75;100.00
31681;BME280;18281;51.364;9.566;2022-08-04T04:16:24;99811.09;;;13.71;100.00
31681;BME280;18281;51.364;9.566;2022-08-04T04:22:11;99812.00;;;13.46;100.00
31681;BME280;18281;51.364;9.566;2022-08-04T04:30:34;99801.72;;;13.67;100.00
31681;BME280;18281;51.364;9.566;2022-08-04T04:36:12;99814.53;;;13.35;100.00
31681;BME280;18281;51.364;9.566;2022-08-04T04:50:10;99821.16;;;13.40;100.00
31681;BME280;18281;51.364;9.566;2022-08-04T04:52:49;99814.06;;;13.67;100.00
31681;BME280;18281;51.364;9.566;2022-08-04T04:55:25;99809.56;;;13.80;100.00
31681;BME280;18281;51.364;9.566;2022-08-04T04:57:56;99810.19;;;14.21;100.00
31681;BME280;18281;51.364;9.566;2022-08-04T05:00:46;99809.16;;;14.46;100.00
31681;BME280;18281;51.364;9.566;2022-08-04T05:06:09;99805.00;;;14.55;100.00
31681;BME280;18281;51.364;9.566;2022-08-04T05:09:06;99799.84;;;14.65;100.00
31681;BME280;18281;51.364;9.566;2022-08-04T05:14:32;99812.06;;;14.19;100.00
31681;BME280;18281;51.364;9.566;2022-08-04T05:20:06;99812.78;;;14.45;100.00
31681;BME280;18281;51.364;9.566;2022-08-04T05:22:38;99810.63;;;14.50;100.00
31681;BME280;18281;51.364;9.566;2022-08-04T05:25:34;99809.09;;;14.70;100.00
31681;BME280;18281;51.364;9.566;2022-08-04T05:28:09;99804.19;;;14.77;100.00
31681;BME280;18281;51.364;9.566;2022-08-04T05:30:40;99804.97;;;14.90;100.00
31681;BME280;18281;51.364;9.566;2022-08-04T05:33:20;99800.66;;;15.01;100.00
31681;BME280;18281;51.364;9.566;2022-08-04T05:35:52;99807.25;;;15.06;100.00
31681;BME280;18281;51.364;9.566;2022-08-04T05:38:22;99805.97;;;15.12;100.00
31681;BME280;18281;51.364;9.566;2022-08-04T05:40:51;99799.56;;;15.03;100.00
31681;BME280;18281;51.364;9.566;2022-08-04T05:43:18;99797.75;;;15.26;100.00
31681;BME280;18281;51.364;9.566;2022-08-04T05:45:44;99795.97;;;15.27;100.00
31681;BME280;18281;51.364;9.566;2022-08-04T05:48:13;99797.03;;;15.36;100.00
31681;BME280;18281;51.364;9.566;2022-08-04T05:50:39;99797.03;;;15.47;100.00
31681;BME280;18281;51.364;9.566;2022-08-04T05:53:05;99798.75;;;15.25;100.00
31681;BME280;18281;51.364;9.566;2022-08-04T05:55:32;99797.72;;;15.83;100.00
31681;BME280;18281;51.364;9.566;2022-08-04T05:58:00;99793.50;;;15.81;100.00
31681;BME280;18281;51.364;9.566;2022-08-04T06:00:27;99797.22;;;15.67;100.00
31681;BME280;18281;51.364;9.566;2022-08-04T06:02:53;99792.28;;;15.85;100.00
31681;BME280;18281;51.364;9.566;2022-08-04T06:05:21;99782.72;;;16.05;100.00
31681;BME280;18281;51.364;9.566;2022-08-04T06:07:47;99777.94;;;16.20;100.00
31681;BME280;18281;51.364;9.566;2022-08-04T06:10:13;99784.59;;;16.14;100.00
31681;BME280;18281;51.364;9.566;2022-08-04T06:15:05;99775.69;;;16.36;100.00
31681;BME280;18281;51.364;9.566;2022-08-04T06:17:37;99783.47;;;16.49;98.91
31681;BME280;18281;51.364;9.566;2022-08-04T06:20:04;99775.78;;;16.46;100.00
31681;BME280;18281;51.364;9.566;2022-08-04T06:22:33;99785.63;;;16.23;100.00
31681;BME280;18281;51.364;9.566;2022-08-04T06:25:00;99780.16;;;16.36;100.00
31681;BME280;18281;51.364;9.566;2022-08-04T06:27:27;99774.69;;;16.70;99.69
31681;BME280;18281;51.364;9.566;2022-08-04T06:29:55;99777.72;;;16.65;99.23
31681;BME280;18281;51.364;9.566;2022-08-04T06:32:23;99777.41;;;16.80;98.60
31681;BME280;18281;51.364;9.566;2022-08-04T06:34:56;99773.41;;;16.95;98.02
31681;BME280;18281;51.364;9.566;2022-08-04T06:37:24;99776.22;;;17.03;97.55
31681;BME280;18281;51.364;9.566;2022-08-04T06:39:50;99782.28;;;17.46;97.09
31681;BME280;18281;51.364;9.566;2022-08-04T06:42:17;99767.91;;;19.14;90.12
31681;BME280;18281;51.364;9.566;2022-08-04T06:44:50;99768.16;;;19.20;88.23
31681;BME280;18281;51.364;9.566;2022-08-04T06:47:17;99772.69;;;19.10;88.84
31681;BME280;18281;51.364;9.566;2022-08-04T06:49:46;99774.63;;;18.70;90.87
31681;BME280;18281;51.364;9.566;2022-08-04T06:52:13;99772.44;;;18.26;93.95
31681;BME280;18281;51.364;9.566;2022-08-04T06:54:43;99773.13;;;18.48;92.40
31681;BME280;18281;51.364;9.566;2022-08-04T06:57:10;99765.56;;;18.53;92.02
31681;BME280;18281;51.364;9.566;2022-08-04T06:59:43;99770.63;;;18.37;94.29
31681;BME280;18281;51.364;9.566;2022-08-04T07:02:19;99767.00;;;18.38;94.37
31681;BME280;18281;51.364;9.566;2022-08-04T07:04:46;99763.03;;;18.52;95.50
31681;BME280;18281;51.364;9.566;2022-08-04T07:07:12;99765.50;;;18.73;94.88
31681;BME280;18281;51.364;9.566;2022-08-04T07:09:38;99763.56;;;18.65;93.72
31681;BME280;18281;51.364;9.566;2022-08-04T07:12:06;99766.38;;;18.64;93.37
31681;BME280;18281;51.364;9.566;2022-08-04T07:14:32;99766.34;;;18.83;93.49
31681;BME280;18281;51.364;9.566;2022-08-04T07:17:06;99760.28;;;19.01;91.83
31681;BME280;18281;51.364;9.566;2022-08-04T07:19:32;99758.50;;;18.91;91.87
31681;BME280;18281;51.364;9.566;2022-08-04T07:22:02;99755.25;;;19.25;91.92
31681;BME280;18281;51.364;9.566;2022-08-04T07:24:34;99755.53;;;19.22;91.75
31681;BME280;18281;51.364;9.566;2022-08-04T07:27:00;99750.63;;;19.27;92.27
31681;BME280;18281;51.364;9.566;2022-08-04T07:29:26;99755.53;;;19.50;91.18
31681;BME280;18281;51.364;9.566;2022-08-04T07:31:53;99744.00;;;19.77;91.09
31681;BME280;18281;51.364;9.566;2022-08-04T07:34:19;99751.63;;;19.90;90.32
31681;BME280;18281;51.364;9.566;2022-08-04T07:36:49;99747.81;;;19.93;89.73
31681;BME280;18281;51.364;9.566;2022-08-04T07:39:15;99753.97;;;19.93;90.28
31681;BME280;18281;51.364;9.566;2022-08-04T07:41:41;99749.63;;;19.92;89.32
31681;BME280;18281;51.364;9.566;2022-08-04T07:44:07;99748.13;;;20.08;89.23
31681;BME280;18281;51.364;9.566;2022-08-04T07:46:35;99747.25;;;20.25;89.26
31681;BME280;18281;51.364;9.566;2022-08-04T07:49:01;99745.94;;;20.30;88.07
31681;BME280;18281;51.364;9.566;2022-08-04T07:51:27;99741.00;;;20.35;87.52
31681;BME280;18281;51.364;9.566;2022-08-04T07:53:55;99732.38;;;20.41;86.78
31681;BME280;18281;51.364;9.566;2022-08-04T07:56:20;99741.13;;;20.51;87.38
31681;BME280;18281;51.364;9.566;2022-08-04T07:58:46;99731.47;;;20.58;86.69
31681;BME280;18281;51.364;9.566;2022-08-04T08:01:12;99735.78;;;20.77;86.80
31681;BME280;18281;51.364;9.566;2022-08-04T08:03:38;99730.66;;;20.92;86.15
31681;BME280;18281;51.364;9.566;2022-08-04T08:06:04;99728.44;;;21.14;83.96
31681;BME280;18281;51.364;9.566;2022-08-04T08:08:30;99730.53;;;21.37;83.19
31681;BME280;18281;51.364;9.566;2022-08-04T08:10:55;99724.03;;;21.56;82.89
31681;BME280;18281;51.364;9.566;2022-08-04T08:13:22;99731.13;;;21.82;82.70
31681;BME280;18281;51.364;9.566;2022-08-04T08:15:48;99726.94;;;22.12;81.40
31681;BME280;18281;51.364;9.566;2022-08-04T08:18:14;99724.41;;;22.35;80.53
31681;BME280;18281;51.364;9.566;2022-08-04T08:20:43;99720.88;;;22.68;79.21
31681;BME280;18281;51.364;9.566;2022-08-04T08:23:09;99718.81;;;22.78;78.65
31681;BME280;18281;51.364;9.566;2022-08-04T08:25:34;99721.03;;;22.74;79.68
31681;BME280;18281;51.364;9.566;2022-08-04T08:28:02;99720.00;;;22.84;79.75
31681;BME280;18281;51.364;9.566;2022-08-04T08:30:27;99718.81;;;22.78;81.16
31681;BME280;18281;51.364;9.566;2022-08-04T08:32:53;99712.38;;;22.96;80.10
31681;BME280;18281;51.364;9.566;2022-08-04T08:35:19;99711.00;;;23.16;79.20
31681;BME280;18281;51.364;9.566;2022-08-04T08:37:55;99704.41;;;23.27;79.88
31681;BME280;18281;51.364;9.566;2022-08-04T08:40:49;99708.03;;;23.66;79.01
31681;BME280;18281;51.364;9.566;2022-08-04T08:46:03;99714.84;;;24.15;76.11
31681;BME280;18281;51.364;9.566;2022-08-04T08:48:59;99704.09;;;24.38;75.17
31681;BME280;18281;51.364;9.566;2022-08-04T08:54:26;99706.31;;;25.09;73.26
31681;BME280;18281;51.364;9.566;2022-08-04T08:57:06;99710.16;;;25.21;71.99
31681;BME280;18281;51.364;9.566;2022-08-04T09:00:06;99707.06;;;24.73;71.99
31681;BME280;18281;51.364;9.566;2022-08-04T09:11:17;99708.69;;;25.40;72.32
31681;BME280;18281;51.364;9.566;2022-08-04T09:13:53;99705.63;;;25.58;71.96
31681;BME280;18281;51.364;9.566;2022-08-04T09:16:41;99703.44;;;25.90;70.88
31681;BME280;18281;51.364;9.566;2022-08-04T09:19:15;99704.59;;;25.81;70.54
31681;BME280;18281;51.364;9.566;2022-08-04T09:22:27;99700.75;;;25.90;70.97
31681;BME280;18281;51.364;9.566;2022-08-04T09:27:34;99704.50;;;25.96;67.36
31681;BME280;18281;51.364;9.566;2022-08-04T09:30:09;99702.25;;;26.00;69.50
31681;BME280;18281;51.364;9.566;2022-08-04T09:38:00;99701.00;;;26.52;64.38
31681;BME280;18281;51.364;9.566;2022-08-04T09:40:50;99698.56;;;26.57;67.06
31681;BME280;18281;51.364;9.566;2022-08-04T09:43:31;99692.16;;;27.00;64.40
31681;BME280;18281;51.364;9.566;2022-08-04T09:46:05;99684.56;;;27.31;65.15
31681;BME280;18281;51.364;9.566;2022-08-04T09:48:43;99693.53;;;27.38;65.01
31681;BME280;18281;51.364;9.566;2022-08-04T09:51:40;99681.06;;;27.37;63.13
31681;BME280;18281;51.364;9.566;2022-08-04T09:54:22;99693.41;;;27.86;62.67
31681;BME280;18281;51.364;9.566;2022-08-04T09:56:55;99692.75;;;27.84;62.63
31681;BME280;18281;51.364;9.566;2022-08-04T09:59:35;99689.66;;;28.01;61.04
31681;BME280;18281;51.364;9.566;2022-08-04T10:02:06;99692.13;;;28.22;62.41
31681;BME280;18281;51.364;9.566;2022-08-04T10:04:34;99687.09;;;27.66;62.32
31681;BME280;18281;51.364;9.566;2022-08-04T10:07:34;99692.69;;;27.51;62.08
31681;BME280;18281;51.364;9.566;2022-08-04T10:16:06;99678.63;;;28.22;61.13
31681;BME280;18281;51.364;9.566;2022-08-04T10:29:46;99672.16;;;29.02;60.41
31681;BME280;18281;51.364;9.566;2022-08-04T10:32:28;99660.97;;;29.63;58.58
31681;BME280;18281;51.364;9.566;2022-08-04T10:35:08;99669.50;;;29.34;58.98
31681;BME280;18281;51.364;9.566;2022-08-04T10:40:07;99664.50;;;29.38;58.67
31681;BME280;18281;51.364;9.566;2022-08-04T10:43:00;99667.88;;;29.58;57.71
31681;BME280;18281;51.364;9.566;2022-08-04T10:45:39;99668.66;;;29.40;57.71
31681;BME280;18281;51.364;9.566;2022-08-04T10:48:21;99655.16;;;29.66;57.85
31681;BME280;18281;51.364;9.566;2022-08-04T10:51:01;99655.25;;;30.03;57.82
31681;BME280;18281;51.364;9.566;2022-08-04T10:53:30;99653.53;;;30.27;57.21
31681;BME280;18281;51.364;9.566;2022-08-04T10:56:08;99652.75;;;30.45;57.02
31681;BME280;18281;51.364;9.566;2022-08-04T10:58:41;99644.59;;;30.27;54.90
31681;BME280;18281;51.364;9.566;2022-08-04T11:01:16;99645.28;;;30.40;55.99
31681;BME280;18281;51.364;9.566;2022-08-04T11:03:51;99650.56;;;30.54;56.71
31681;BME280;18281;51.364;9.566;2022-08-04T11:06:22;99641.47;;;30.48;55.08
31681;BME280;18281;51.364;9.566;2022-08-04T11:08:51;99639.22;;;30.64;55.80
31681;BME280;18281;51.364;9.566;2022-08-04T11:16:25;99637.59;;;30.93;55.29
31681;BME280;18281;51.364;9.566;2022-08-04T11:19:05;99634.81;;;30.81;54.68
31681;BME280;18281;51.364;9.566;2022-08-04T11:21:34;99640.56;;;30.73;54.65
31681;BME280;18281;51.364;9.566;2022-08-04T11:24:08;99638.31;;;31.31;53.60
31681;BME280;18281;51.364;9.566;2022-08-04T11:26:44;99644.38;;;31.45;53.80
31681;BME280;18281;51.364;9.566;2022-08-04T11:29:38;99637.66;;;31.05;53.38
31681;BME280;18281;51.364;9.566;2022-08-04T11:32:11;99630.03;;;31.26;53.91
31681;BME280;18281;51.364;9.566;2022-08-04T11:34:43;99631.22;;;31.30;56.31
31681;BME280;18281;51.364;9.566;2022-08-04T11:37:31;99625.91;;;30.93;53.71
31681;BME280;18281;51.364;9.566;2022-08-04T11:40:28;99637.75;;;30.98;52.42
31681;BME280;18281;51.364;9.566;2022-08-04T11:43:07;99630.19;;;31.00;53.00
31681;BME280;18281;51.364;9.566;2022-08-04T11:45:37;99633.16;;;31.41;53.15
31681;BME280;18281;51.364;9.566;2022-08-04T11:48:15;99634.97;;;31.59;52.67
31681;BME280;18281;51.364;9.566;2022-08-04T11:50:52;99637.56;;;31.66;52.58
31681;BME280;18281;51.364;9.566;2022-08-04T11:53:22;99634.38;;;31.45;52.22
31681;BME280;18281;51.364;9.566;2022-08-04T11:55:51;99636.50;;;31.67;51.60
31681;BME280;18281;51.364;9.566;2022-08-04T11:58:18;99631.19;;;31.60;52.04
31681;BME280;18281;51.364;9.566;2022-08-04T12:03:34;99635.81;;;32.07;53.01
31681;BME280;18281;51.364;9.566;2022-08-04T12:06:18;99628.94;;;31.45;51.74
31681;BME280;18281;51.364;9.566;2022-08-04T12:11:42;99623.16;;;32.24;51.29
31681;BME280;18281;51.364;9.566;2022-08-04T12:17:26;99619.06;;;31.86;52.53
31681;BME280;18281;51.364;9.566;2022-08-04T12:20:00;99624.25;;;31.76;51.41
31681;BME280;18281;51.364;9.566;2022-08-04T12:22:28;99619.72;;;32.41;51.60
31681;BME280;18281;51.364;9.566;2022-08-04T12:27:33;99616.69;;;31.78;51.12
31681;BME280;18281;51.364;9.566;2022-08-04T12:30:01;99609.22;;;32.21;51.40
31681;BME280;18281;51.364;9.566;2022-08-04T12:32:34;99605.84;;;31.90;50.77
31681;BME280;18281;51.364;9.566;2022-08-04T12:35:26;99604.91;;;32.08;51.04
31681;BME280;18281;51.364;9.566;2022-08-04T12:38:02;99592.56;;;32.17;50.42
31681;BME280;18281;51.364;9.566;2022-08-04T12:40:50;99590.16;;;32.56;50.50
31681;BME280;18281;51.364;9.566;2022-08-04T12:43:25;99595.03;;;32.43;50.92
31681;BME280;18281;51.364;9.566;2022-08-04T12:46:02;99597.09;;;31.88;51.01
31681;BME280;18281;51.364;9.566;2022-08-04T12:48:29;99579.84;;;32.18;51.36
31681;BME280;18281;51.364;9.566;2022-08-04T12:50:57;99586.69;;;32.61;51.75
31681;BME280;18281;51.364;9.566;2022-08-04T12:53:31;99584.59;;;31.99;50.18
31681;BME280;18281;51.364;9.566;2022-08-04T12:55:57;99587.53;;;31.62;50.91
31681;BME280;18281;51.364;9.566;2022-08-04T12:58:24;99583.38;;;32.06;51.50
31681;BME280;18281;51.364;9.566;2022-08-04T13:01:02;99588.22;;;32.28;51.01
31681;BME280;18281;51.364;9.566;2022-08-04T13:03:35;99580.41;;;32.20;50.92
31681;BME280;18281;51.364;9.566;2022-08-04T13:06:02;99572.66;;;32.12;50.84
31681;BME280;18281;51.364;9.566;2022-08-04T13:08:37;99584.25;;;32.07;51.18
31681;BME280;18281;51.364;9.566;2022-08-04T13:11:03;99566.88;;;32.08;49.83
31681;BME280;18281;51.364;9.566;2022-08-04T13:13:32;99566.03;;;32.31;50.46
31681;BME280;18281;51.364;9.566;2022-08-04T13:16:02;99561.47;;;32.08;49.84
31681;BME280;18281;51.364;9.566;2022-08-04T13:18:29;99554.81;;;32.16;50.26
31681;BME280;18281;51.364;9.566;2022-08-04T13:21:08;99552.41;;;32.43;50.51
31681;BME280;18281;51.364;9.566;2022-08-04T13:23:36;99555.66;;;32.86;50.03
31681;BME280;18281;51.364;9.566;2022-08-04T13:26:02;99554.66;;;32.92;49.81
31681;BME280;18281;51.364;9.566;2022-08-04T13:28:30;99552.53;;;32.94;49.91
31681;BME280;18281;51.364;9.566;2022-08-04T13:30:58;99550.06;;;32.93;50.67
31681;BME280;18281;51.364;9.566;2022-08-04T13:33:34;99551.22;;;32.97;50.33
31681;BME280;18281;51.364;9.566;2022-08-04T13:36:01;99549.06;;;32.99;50.05
31681;BME280;18281;51.364;9.566;2022-08-04T13:38:27;99550.72;;;33.00;49.93
31681;BME280;18281;51.364;9.566;2022-08-04T13:41:02;99541.50;;;33.01;48.88
31681;BME280;18281;51.364;9.566;2022-08-04T13:43:31;99545.38;;;32.76;48.70
31681;BME280;18281;51.364;9.566;2022-08-04T13:46:00;99537.34;;;32.81;49.48
31681;BME280;18281;51.364;9.566;2022-08-04T13:48:37;99538.44;;;32.51;48.82
31681;BME280;18281;51.364;9.566;2022-08-04T13:51:05;99537.13;;;32.71;48.55
31681;BME280;18281;51.364;9.566;2022-08-04T13:53:32;99540.31;;;32.80;48.07
31681;BME280;18281;51.364;9.566;2022-08-04T13:55:59;99526.59;;;32.74;48.46
31681;BME280;18281;51.364;9.566;2022-08-04T13:58:29;99533.16;;;32.90;48.66
31681;BME280;18281;51.364;9.566;2022-08-04T14:01:10;99523.84;;;32.86;48.83
31681;BME280;18281;51.364;9.566;2022-08-04T14:04:37;99532.84;;;33.04;48.87
31681;BME280;18281;51.364;9.566;2022-08-04T14:06:44;99537.88;;;33.12;49.60
31681;BME280;18281;51.364;9.566;2022-08-04T14:09:18;99526.69;;;33.26;49.33
31681;BME280;18281;51.364;9.566;2022-08-04T14:14:22;99520.50;;;32.67;49.18
31681;BME280;18281;51.364;9.566;2022-08-04T14:25:08;99496.09;;;32.84;49.09
31681;BME280;18281;51.364;9.566;2022-08-04T14:27:46;99498.63;;;32.74;48.93
31681;BME280;18281;51.364;9.566;2022-08-04T14:35:31;99492.25;;;32.51;49.39
31681;BME280;18281;51.364;9.566;2022-08-04T14:38:00;99494.75;;;32.41;48.86
31681;BME280;18281;51.364;9.566;2022-08-04T14:40:28;99489.84;;;32.26;48.99
31681;BME280;18281;51.364;9.566;2022-08-04T14:42:54;99485.41;;;32.49;48.69
31681;BME280;18281;51.364;9.566;2022-08-04T14:45:27;99489.75;;;32.21;49.49
31681;BME280;18281;51.364;9.566;2022-08-04T14:47:53;99489.66;;;32.04;48.93
31681;BME280;18281;51.364;9.566;2022-08-04T14:50:19;99492.88;;;32.01;49.15
31681;BME280;18281;51.364;9.566;2022-08-04T14:53:08;99479.69;;;31.69;49.33
31681;BME280;18281;51.364;9.566;2022-08-04T14:55:34;99491.41;;;31.57;50.18
31681;BME280;18281;51.364;9.566;2022-08-04T14:58:00;99479.69;;;31.81;49.93
31681;BME280;18281;51.364;9.566;2022-08-04T15:00:32;99485.94;;;31.81;49.96
31681;BME280;18281;51.364;9.566;2022-08-04T15:03:01;99487.97;;;31.62;49.40
31681;BME280;18281;51.364;9.566;2022-08-04T15:05:29;99491.38;;;31.81;49.70
31681;BME280;18281;51.364;9.566;2022-08-04T15:07:55;99493.53;;;31.55;51.01
31681;BME280;18281;51.364;9.566;2022-08-04T15:10:21;99491.88;;;31.54;51.10
31681;BME280;18281;51.364;9.566;2022-08-04T15:12:46;99484.09;;;31.82;50.68
31681;BME280;18281;51.364;9.566;2022-08-04T15:15:13;99483.84;;;31.83;50.14
31681;BME280;18281;51.364;9.566;2022-08-04T15:17:39;99482.19;;;31.82;50.29
31681;BME280;18281;51.364;9.566;2022-08-04T15:20:05;99476.84;;;31.76;50.40
31681;BME280;18281;51.364;9.566;2022-08-04T15:22:31;99481.50;;;31.63;50.81
31681;BME280;18281;51.364;9.566;2022-08-04T15:24:57;99486.34;;;31.37;50.60
31681;BME280;18281;51.364;9.566;2022-08-04T15:27:29;99486.19;;;31.68;50.21
31681;BME280;18281;51.364;9.566;2022-08-04T15:30:00;99474.06;;;31.59;50.36
31681;BME280;18281;51.364;9.566;2022-08-04T15:32:28;99475.34;;;31.32;50.92
31681;BME280;18281;51.364;9.566;2022-08-04T15:35:01;99473.91;;;31.06;51.08
31681;BME280;18281;51.364;9.566;2022-08-04T15:37:31;99473.84;;;31.36;51.20
31681;BME280;18281;51.364;9.566;2022-08-04T15:40:12;99476.19;;;31.33;51.97
31681;BME280;18281;51.364;9.566;2022-08-04T15:42:47;99477.03;;;30.79;52.25
31681;BME280;18281;51.364;9.566;2022-08-04T15:45:22;99471.78;;;30.84;52.93
31681;BME280;18281;51.364;9.566;2022-08-04T15:50:30;99470.78;;;30.67;53.15
31681;BME280;18281;51.364;9.566;2022-08-04T15:53:03;99473.81;;;30.89;53.77
31681;BME280;18281;51.364;9.566;2022-08-04T15:55:41;99472.97;;;30.88;53.48
31681;BME280;18281;51.364;9.566;2022-08-04T15:58:08;99474.31;;;30.79;54.96
31681;BME280;18281;51.364;9.566;2022-08-04T16:21:50;99473.53;;;30.18;60.72
31681;BME280;18281;51.364;9.566;2022-08-04T16:24:18;99474.94;;;30.20;58.40
31681;BME280;18281;51.364;9.566;2022-08-04T16:26:46;99481.59;;;29.87;60.93
31681;BME280;18281;51.364;9.566;2022-08-04T16:37:15;99491.63;;;29.80;52.29
31681;BME280;18281;51.364;9.566;2022-08-04T16:39:42;99494.00;;;29.95;52.69
31681;BME280;18281;51.364;9.566;2022-08-04T16:45:10;99499.63;;;29.94;52.12
31681;BME280;18281;51.364;9.566;2022-08-04T16:50:11;99504.22;;;29.93;52.08
31681;BME280;18281;51.364;9.566;2022-08-04T16:52:51;99497.81;;;29.69;52.30
31681;BME280;18281;51.364;9.566;2022-08-04T16:55:18;99496.84;;;29.82;51.71
31681;BME280;18281;51.364;9.566;2022-08-04T16:57:56;99504.03;;;29.25;52.95
31681;BME280;18281;51.364;9.566;2022-08-04T17:00:34;99506.38;;;29.66;53.06
31681;BME280;18281;51.364;9.566;2022-08-04T17:03:08;99495.25;;;29.74;54.37
31681;BME280;18281;51.364;9.566;2022-08-04T17:05:34;99503.19;;;29.50;56.42
31681;BME280;18281;51.364;9.566;2022-08-04T17:08:01;99502.59;;;29.48;57.08
31681;BME280;18281;51.364;9.566;2022-08-04T17:12:57;99497.53;;;29.08;nan
31681;BME280;18281;51.364;9.566;2022-08-04T17:15:24;99489.31;;;28.57;59.58
31681;BME280;18281;51.364;9.566;2022-08-04T17:17:50;99494.44;;;28.34;61.39
31681;BME280;18281;51.364;9.566;2022-08-04T17:20:15;99491.53;;;28.67;58.79
31681;BME280;18281;51.364;9.566;2022-08-04T17:22:41;99500.94;;;28.58;59.49
31681;BME280;18281;51.364;9.566;2022-08-04T17:25:07;99494.69;;;28.25;59.69
31681;BME280;18281;51.364;9.566;2022-08-04T17:27:32;99493.38;;;28.41;60.27